Meadows Field
KBFL : now visible

Airfield :











YOU CAN JOIN US ON...

 
LOGIN :

Register | Disclaimer

   EN    FR    IT 

 









Legend :    VFR   Marginal VFR   IFR   Intensive IFR   Very Intensive IFR
Visi :
Ceiling :
>= 8 km
>= 3000ft
5 to 8 km
1000 to 3000 ft
1500m to 5 km
500 to 1000 ft
800 to 1500m
200 to 500 ft
< 800m
< 200 ft
Symbols :   Thunderstorms  Fog  Heavy snow  Heavy precipitations  Wind > 20 kt






- Airport Elevation : 510 ft
- IATA code : BFL


KBFL - Meadows Field

CURRENT METAR :
  • 291454Z AUTO 00000KT 6SM HZ BKN027 BKN035 08/06 A3022 RMK AO2 SLP232 T00830056 55004 TSNO

EXPIRED METARs :
  • 291354Z AUTO 29004KT 6SM HZ BKN032 OVC040 08/06 A3022 RMK AO2 SLP231 T00830056 TSNO
  • 291254Z AUTO 00000KT 6SM BR OVC037 09/07 A3021 RMK AO2 SLP230 T00890067 TSNO
  • 291154Z AUTO 00000KT 6SM BR OVC036 08/06 A3023 RMK AO2 SLP236 T00830061 10100 20072 50000 TSNO

TAF KBFL
Valid from the 29 at 12:00 until the 30 at 12:00 UTC


291136Z 2912/3012 00000KT 6SM HZ BKN040 OVC060
FM292000 32005KT P6SM FEW200
FM300900 VRB03KT 4SM HZ BKN250



MET'MAP, your aeronautical weather chart ! - Copyright ORBIFLY December 2007 - Disclaimer

ORBIFLY MET'MAP TEAM :

Programming & Development : Alexandra Zaïnal
Concept & original design : Baudouin d'Aumeries
Assistance for programming : Marc-Olivier Méhu
Technical & hardware support : Manuel Goepfert

Contact : metmap@orbifly.com




SOURCES & CREDITS :

   NOAA       Earth
Advisory